Terminal Aerodrome Forecast
Issued by NWS Wilmington, OH

Current Version | Previous Version | Text Only | Print | Product List | Glossary Off
Versions: 1 2 3 4 5 6 7 8 9 10 11 12 13 14 15 16 17 18 19 20 21 22 23

000
FTUS41 KILN 180534
TAFILN
TAF
KILN 180534Z 1806/1906 23008KT P6SM SCT250
     FM181400 21012KT P6SM BKN200
     FM182100 22012KT P6SM OVC050
     FM190400 24008KT P6SM OVC025=

USA.gov is the U.S. government's official web portal to all federal, state and local government web resources and services.